createdAt,value
2022-12-04T00:01:29.885Z,44.63
2022-12-04T00:03:59.700Z,47.97
2022-12-04T00:06:29.777Z,43.60
2022-12-04T00:08:58.399Z,48.30
2022-12-04T00:11:29.164Z,46.07
2022-12-04T00:14:04.641Z,54.80
2022-12-04T00:16:34.796Z,52.03
2022-12-04T00:19:02.961Z,51.63
2022-12-04T00:21:32.594Z,62.07
2022-12-04T00:24:00.955Z,56.30
2022-12-04T00:26:31.171Z,51.30
2022-12-04T00:28:59.520Z,47.43
2022-12-04T00:31:29.764Z,55.27
2022-12-04T00:33:58.739Z,54.03
2022-12-04T00:36:28.555Z,75.20
2022-12-04T00:39:00.601Z,71.27
2022-12-04T00:41:30.372Z,76.47
2022-12-04T00:43:58.550Z,70.00
2022-12-04T00:46:27.298Z,69.17
2022-12-04T00:48:55.951Z,73.30
2022-12-04T00:51:25.754Z,81.67
2022-12-04T00:53:54.853Z,76.13
2022-12-04T00:56:27.170Z,72.13
2022-12-04T00:58:56.491Z,78.87
2022-12-04T01:01:25.945Z,71.93
2022-12-04T01:03:55.750Z,74.23
2022-12-04T01:06:25.854Z,86.23
2022-12-04T01:08:55.527Z,74.37
2022-12-04T01:11:27.268Z,82.57
2022-12-04T01:13:55.647Z,76.60
2022-12-04T01:16:25.951Z,74.93
2022-12-04T01:18:54.500Z,80.97
2022-12-04T01:21:23.037Z,70.93
2022-12-04T01:23:51.376Z,74.33
2022-12-04T01:26:19.580Z,67.07
2022-12-04T01:28:49.064Z,64.17
2022-12-04T01:31:19.120Z,62.77
2022-12-04T01:33:47.880Z,61.77
2022-12-04T01:36:18.277Z,57.23
2022-12-04T01:38:46.448Z,62.47
2022-12-04T01:41:15.995Z,56.97
2022-12-04T01:43:44.194Z,56.47
2022-12-04T01:46:13.829Z,64.20
2022-12-04T01:48:47.559Z,61.47
2022-12-04T01:51:19.731Z,57.90
2022-12-04T01:53:52.294Z,55.70
2022-12-04T01:56:21.897Z,53.47
2022-12-04T01:58:53.768Z,63.23
2022-12-04T02:01:23.166Z,55.70
2022-12-04T02:03:51.662Z,61.80
2022-12-04T02:06:19.728Z,66.80
2022-12-04T02:08:48.207Z,60.20
2022-12-04T02:11:28.203Z,62.43
2022-12-04T02:14:07.348Z,69.90
2022-12-04T02:16:44.269Z,65.60
2022-12-04T02:19:34.274Z,75.97
2022-12-04T02:22:10.745Z,69.57
2022-12-04T02:24:50.386Z,58.70
2022-12-04T02:27:33.991Z,64.80
2022-12-04T02:30:06.907Z,62.23
2022-12-04T02:32:40.871Z,58.47
2022-12-04T02:35:16.339Z,60.60
2022-12-04T02:37:47.096Z,59.53
2022-12-04T02:40:22.419Z,61.43
2022-12-04T02:42:55.456Z,56.90
2022-12-04T02:45:28.517Z,59.97
2022-12-04T02:47:58.248Z,55.17
2022-12-04T02:50:28.207Z,68.37
2022-12-04T02:53:02.766Z,61.03
2022-12-04T02:55:36.859Z,69.07
2022-12-04T02:58:10.439Z,56.13
2022-12-04T03:00:45.070Z,60.97
2022-12-04T03:03:19.573Z,55.40
2022-12-04T03:05:55.410Z,61.73
2022-12-04T03:08:29.860Z,57.00
2022-12-04T03:11:01.568Z,58.80
2022-12-04T03:13:35.303Z,58.43
2022-12-04T03:16:09.683Z,55.47
2022-12-04T03:18:41.061Z,63.17
2022-12-04T03:21:13.427Z,64.33
2022-12-04T03:23:47.469Z,63.80
2022-12-04T03:26:23.874Z,56.17
2022-12-04T03:28:57.245Z,48.80
2022-12-04T03:31:33.480Z,47.27
2022-12-04T03:34:04.295Z,47.80
2022-12-04T03:36:37.596Z,42.80
2022-12-04T03:39:13.550Z,50.17
2022-12-04T03:41:55.397Z,41.60
2022-12-04T03:44:27.902Z,39.40
2022-12-04T03:47:04.653Z,39.13
2022-12-04T03:49:41.887Z,48.63
2022-12-04T03:52:15.616Z,42.50
2022-12-04T03:54:48.749Z,49.13
2022-12-04T03:57:20.345Z,47.53
2022-12-04T03:59:55.844Z,52.70
2022-12-04T04:02:30.067Z,64.80
2022-12-04T04:05:01.331Z,54.97
2022-12-04T04:07:36.122Z,61.30
2022-12-04T04:10:09.126Z,62.73
2022-12-04T04:12:41.917Z,61.50
2022-12-04T04:15:30.743Z,64.80
2022-12-04T04:18:20.018Z,63.60
2022-12-04T04:21:11.574Z,48.80
2022-12-04T04:24:02.175Z,56.63
2022-12-04T04:26:36.657Z,48.43
2022-12-04T04:29:04.805Z,41.13
2022-12-04T04:31:39.425Z,42.43
2022-12-04T04:34:18.650Z,37.17
2022-12-04T04:36:55.572Z,40.90
2022-12-04T04:39:32.084Z,36.70
2022-12-04T04:42:08.150Z,36.83
2022-12-04T04:44:45.177Z,35.93
2022-12-04T04:47:19.789Z,41.67
2022-12-04T04:49:53.143Z,40.93
2022-12-04T04:52:23.859Z,38.20
2022-12-04T04:54:51.897Z,40.40
2022-12-04T04:57:48.087Z,37.40
2022-12-04T05:00:19.491Z,40.70
2022-12-04T05:02:48.848Z,36.30
2022-12-04T05:05:18.587Z,40.17
2022-12-04T05:07:46.738Z,34.57
2022-12-04T05:10:15.140Z,36.40
2022-12-04T05:12:45.043Z,37.63
2022-12-04T05:15:13.260Z,31.50
2022-12-04T05:17:41.441Z,27.70
2022-12-04T05:20:11.441Z,35.97
2022-12-04T05:22:40.883Z,28.43
2022-12-04T05:25:09.686Z,34.83
2022-12-04T05:27:37.804Z,31.73
2022-12-04T05:30:08.016Z,33.13
2022-12-04T05:32:36.299Z,32.23
2022-12-04T05:35:10.621Z,29.80
2022-12-04T05:37:42.174Z,30.73
2022-12-04T05:40:11.233Z,30.73
2022-12-04T05:42:39.341Z,31.27
2022-12-04T05:45:08.229Z,26.27
2022-12-04T05:47:39.792Z,34.37
2022-12-04T05:50:10.346Z,33.20
2022-12-04T05:52:38.447Z,31.43
2022-12-04T05:55:08.456Z,30.67
2022-12-04T05:57:36.550Z,28.47
2022-12-04T06:00:06.246Z,30.03
2022-12-04T06:02:35.704Z,24.97
2022-12-04T06:05:04.057Z,27.87
2022-12-04T06:07:32.214Z,25.87
2022-12-04T06:10:00.418Z,24.33
2022-12-04T06:12:31.009Z,31.23
2022-12-04T06:14:59.078Z,29.13
2022-12-04T06:17:27.240Z,31.17
2022-12-04T06:19:56.285Z,29.47
2022-12-04T06:22:24.621Z,29.13
2022-12-04T06:24:52.711Z,27.13
2022-12-04T06:27:28.633Z,28.93
2022-12-04T06:29:58.956Z,27.07
2022-12-04T06:32:27.499Z,32.87
2022-12-04T06:34:56.687Z,30.30
2022-12-04T06:37:26.645Z,28.07
2022-12-04T06:39:55.237Z,29.40
2022-12-04T06:42:23.646Z,31.70
2022-12-04T06:44:51.847Z,25.93
2022-12-04T06:47:21.429Z,28.43
2022-12-04T06:49:51.617Z,26.53
2022-12-04T06:52:19.843Z,25.60
2022-12-04T06:54:48.131Z,28.00
2022-12-04T06:57:16.479Z,32.87
2022-12-04T06:59:44.580Z,57.83
2022-12-04T07:02:12.829Z,29.03
2022-12-04T07:04:42.620Z,33.77
2022-12-04T07:07:11.113Z,28.90
2022-12-04T07:09:39.431Z,27.67
2022-12-04T07:12:08.245Z,31.03
2022-12-04T07:14:36.383Z,26.10
2022-12-04T07:17:04.676Z,26.27
2022-12-04T07:19:32.799Z,31.50
2022-12-04T07:22:02.265Z,27.27
2022-12-04T07:24:30.419Z,31.23
2022-12-04T07:26:58.558Z,27.60
2022-12-04T07:29:26.680Z,27.70
2022-12-04T07:31:54.905Z,28.77
2022-12-04T07:34:23.504Z,29.43
2022-12-04T07:36:51.685Z,28.33
2022-12-04T07:39:21.253Z,38.13
2022-12-04T07:41:49.445Z,33.37
2022-12-04T07:44:17.986Z,28.00
2022-12-04T07:46:46.126Z,31.63
2022-12-04T07:49:14.574Z,32.53
2022-12-04T07:51:42.999Z,30.47
2022-12-04T07:54:11.180Z,31.47
2022-12-04T07:56:40.746Z,31.50
2022-12-04T07:59:08.898Z,28.60
2022-12-04T08:01:37.077Z,28.87
2022-12-04T08:04:05.499Z,31.87
2022-12-04T08:06:35.438Z,29.27
2022-12-04T08:09:09.566Z,30.00
2022-12-04T08:11:38.822Z,30.00
2022-12-04T08:14:09.855Z,38.40
2022-12-04T08:16:38.103Z,29.13
2022-12-04T08:19:06.541Z,34.90
2022-12-04T08:21:34.876Z,49.60
2022-12-04T08:24:03.135Z,37.07
2022-12-04T08:26:33.830Z,42.17
2022-12-04T08:29:02.833Z,33.13
2022-12-04T08:31:34.676Z,37.33
2022-12-04T08:34:05.326Z,38.20
2022-12-04T08:36:34.313Z,35.47
2022-12-04T08:39:02.452Z,32.57
2022-12-04T08:41:30.680Z,35.63
2022-12-04T08:44:00.582Z,41.10
2022-12-04T08:46:29.909Z,36.93
2022-12-04T08:48:59.824Z,30.23
2022-12-04T08:51:29.852Z,39.87
2022-12-04T08:54:01.373Z,40.90
2022-12-04T08:56:31.977Z,38.73
2022-12-04T08:59:01.004Z,33.23
2022-12-04T09:01:30.753Z,36.83
2022-12-04T09:04:00.447Z,44.63
2022-12-04T09:06:29.873Z,36.27
2022-12-04T09:08:59.008Z,36.13
2022-12-04T09:11:30.001Z,31.77
2022-12-04T09:13:58.257Z,36.50
2022-12-04T09:16:28.431Z,34.90
2022-12-04T09:19:00.837Z,31.23
2022-12-04T09:21:30.497Z,35.90
2022-12-04T09:24:00.242Z,35.43
2022-12-04T09:26:32.772Z,35.73
2022-12-04T09:29:03.093Z,53.70
2022-12-04T09:31:31.448Z,44.87
2022-12-04T09:34:00.063Z,35.17
2022-12-04T09:36:28.875Z,34.50
2022-12-04T09:38:59.601Z,39.53
2022-12-04T09:41:56.487Z,35.20
2022-12-04T09:44:29.209Z,33.73
2022-12-04T09:47:03.102Z,30.50
2022-12-04T09:49:38.629Z,31.07
2022-12-04T09:52:20.318Z,35.67
2022-12-04T09:54:53.388Z,34.90
2022-12-04T09:57:31.309Z,36.93
2022-12-04T10:00:00.402Z,38.27
2022-12-04T10:02:36.844Z,33.67
2022-12-04T10:05:06.178Z,34.83
2022-12-04T10:07:42.505Z,35.57
2022-12-04T10:10:23.414Z,34.03
2022-12-04T10:13:11.697Z,28.63
2022-12-04T10:15:48.431Z,31.80
2022-12-04T10:18:29.512Z,23.13
2022-12-04T10:21:25.107Z,23.33
2022-12-04T10:24:09.374Z,26.13
2022-12-04T10:26:45.256Z,39.63
2022-12-04T10:29:21.592Z,20.50
2022-12-04T10:31:53.331Z,21.00
2022-12-04T10:34:25.026Z,20.37
2022-12-04T10:36:55.585Z,23.80
2022-12-04T10:39:28.458Z,21.97
2022-12-04T10:42:03.088Z,19.17
2022-12-04T10:44:31.264Z,18.97
2022-12-04T10:47:01.823Z,22.87
2022-12-04T10:49:31.878Z,17.93
2022-12-04T10:52:00.145Z,15.70
2022-12-04T10:54:33.697Z,18.90
2022-12-04T10:57:05.838Z,23.00
2022-12-04T10:59:34.782Z,20.27
2022-12-04T11:02:07.483Z,18.27
2022-12-04T11:04:37.015Z,16.37
2022-12-04T11:07:07.784Z,14.57
2022-12-04T11:09:37.025Z,17.07
2022-12-04T11:12:18.106Z,13.67
2022-12-04T11:14:47.489Z,16.67
2022-12-04T11:17:20.094Z,18.80
2022-12-04T11:19:48.380Z,17.33
2022-12-04T11:22:19.107Z,20.07
2022-12-04T11:24:54.192Z,16.27
2022-12-04T11:27:28.015Z,17.40
2022-12-04T11:29:57.883Z,26.50
2022-12-04T11:32:29.896Z,17.97
2022-12-04T11:35:02.497Z,19.70
2022-12-04T11:37:34.779Z,18.70
2022-12-04T11:40:06.469Z,15.20
2022-12-04T11:42:35.960Z,17.00
2022-12-04T11:45:21.031Z,16.23
2022-12-04T11:47:55.718Z,19.90
2022-12-04T11:50:32.072Z,23.83
2022-12-04T11:53:11.636Z,20.70
2022-12-04T11:55:50.107Z,16.53
2022-12-04T11:58:41.033Z,17.77
2022-12-04T12:01:22.179Z,20.33
2022-12-04T12:04:04.382Z,20.77
2022-12-04T12:06:36.054Z,18.60
2022-12-04T12:09:18.866Z,15.43
2022-12-04T12:11:53.601Z,20.40
2022-12-04T12:14:31.184Z,16.03
2022-12-04T12:17:11.369Z,21.47
2022-12-04T12:20:04.232Z,20.07
2022-12-04T12:22:54.117Z,18.20
2022-12-04T12:25:28.299Z,17.37
2022-12-04T12:28:12.747Z,18.90
2022-12-04T12:30:55.468Z,15.30
2022-12-04T12:33:28.587Z,17.73
2022-12-04T12:36:02.607Z,17.17
2022-12-04T12:38:39.329Z,16.37
2022-12-04T12:41:14.394Z,18.97
2022-12-04T12:43:46.345Z,17.47
2022-12-04T12:46:19.365Z,20.30
2022-12-04T12:48:58.189Z,18.10
2022-12-04T12:51:35.689Z,20.70
2022-12-04T12:54:15.385Z,55.80
2022-12-04T12:56:50.682Z,31.57
2022-12-04T12:59:22.417Z,21.70
2022-12-04T13:02:00.915Z,17.77
2022-12-04T13:04:35.527Z,18.80
2022-12-04T13:07:16.344Z,18.63
2022-12-04T13:09:52.894Z,16.97
2022-12-04T13:12:24.211Z,17.87
2022-12-04T13:14:52.324Z,15.53
2022-12-04T13:17:29.919Z,14.83
2022-12-04T13:20:05.316Z,21.20
2022-12-04T13:22:45.959Z,21.43
2022-12-04T13:25:37.926Z,13.83
2022-12-04T13:28:18.495Z,12.23
2022-12-04T13:30:53.326Z,10.70
2022-12-04T13:33:59.849Z,11.53
2022-12-04T13:36:55.654Z,8.00
2022-12-04T13:39:50.145Z,13.63
2022-12-04T13:42:27.342Z,8.40
2022-12-04T13:44:59.010Z,10.30
2022-12-04T13:47:29.518Z,7.23
2022-12-04T13:50:23.216Z,7.80
2022-12-04T13:52:53.744Z,5.67
2022-12-04T13:55:27.699Z,11.00
2022-12-04T13:57:57.470Z,6.77
2022-12-04T14:00:30.662Z,11.30
2022-12-04T14:03:03.299Z,11.50
2022-12-04T14:05:40.421Z,15.00
2022-12-04T14:08:25.696Z,9.23
2022-12-04T14:11:03.675Z,10.60
2022-12-04T14:13:43.684Z,13.03
2022-12-04T14:16:21.067Z,12.83
2022-12-04T14:18:50.909Z,10.17
2022-12-04T14:21:19.323Z,10.20
2022-12-04T14:23:49.507Z,14.07
2022-12-04T14:26:29.297Z,25.73
2022-12-04T14:29:30.192Z,11.77
2022-12-04T14:32:01.870Z,14.10
2022-12-04T14:34:32.012Z,10.63
2022-12-04T14:37:02.314Z,12.53
2022-12-04T14:39:35.764Z,15.67
2022-12-04T14:42:13.913Z,11.03
2022-12-04T14:44:42.738Z,12.70
2022-12-04T14:47:21.696Z,15.90
2022-12-04T14:50:07.005Z,15.43
2022-12-04T14:52:42.163Z,22.50
2022-12-04T14:55:23.821Z,23.77
2022-12-04T14:57:56.740Z,23.30
2022-12-04T15:00:26.028Z,20.60
2022-12-04T15:02:57.713Z,17.30
2022-12-04T15:05:28.914Z,14.07
2022-12-04T15:08:01.307Z,12.40
2022-12-04T15:10:50.053Z,15.00
2022-12-04T15:13:26.952Z,17.03
2022-12-04T15:15:55.545Z,17.10
2022-12-04T15:18:23.731Z,19.83
2022-12-04T15:20:59.735Z,20.97
2022-12-04T15:23:32.333Z,17.40
2022-12-04T15:26:03.519Z,18.87
2022-12-04T15:28:35.549Z,21.70
2022-12-04T15:31:07.874Z,18.97
2022-12-04T15:33:39.738Z,17.57
2022-12-04T15:36:13.394Z,20.30
2022-12-04T15:38:42.027Z,23.97
2022-12-04T15:41:30.711Z,26.13
2022-12-04T15:43:59.020Z,28.03
2022-12-04T15:46:33.829Z,22.00
2022-12-04T15:49:16.957Z,23.40
2022-12-04T15:51:46.846Z,23.27
2022-12-04T15:54:21.082Z,21.07
2022-12-04T15:57:01.175Z,18.17
2022-12-04T15:59:31.012Z,16.47
2022-12-04T16:02:05.485Z,18.27
2022-12-04T16:04:35.665Z,16.07
2022-12-04T16:07:03.959Z,16.17
2022-12-04T16:09:32.607Z,36.90
2022-12-04T16:12:05.034Z,31.27
2022-12-04T16:14:33.197Z,27.57
2022-12-04T16:17:06.245Z,42.20
2022-12-04T16:19:37.120Z,22.47
2022-12-04T16:22:13.365Z,51.70
2022-12-04T16:24:42.008Z,22.67
2022-12-04T16:27:14.682Z,22.50
2022-12-04T16:29:43.266Z,22.73
2022-12-04T16:32:13.272Z,16.13
2022-12-04T16:34:41.892Z,15.50
2022-12-04T16:37:13.971Z,15.17
2022-12-04T16:39:42.413Z,17.20
2022-12-04T16:42:17.281Z,14.33
2022-12-04T16:44:46.232Z,20.30
2022-12-04T16:47:15.350Z,18.27
2022-12-04T16:49:44.687Z,19.13
2022-12-04T16:52:13.716Z,18.00
2022-12-04T16:54:42.258Z,17.70
2022-12-04T16:57:11.538Z,21.50
2022-12-04T16:59:41.699Z,14.30
2022-12-04T17:02:16.880Z,21.53
2022-12-04T17:04:44.991Z,25.00
2022-12-04T17:07:13.025Z,25.93
2022-12-04T17:09:41.929Z,22.37
2022-12-04T17:12:10.199Z,22.57
2022-12-04T17:14:39.121Z,20.57
2022-12-04T17:17:08.633Z,19.27
2022-12-04T17:19:36.739Z,20.00
2022-12-04T17:22:04.838Z,30.73
2022-12-04T17:24:33.096Z,26.80
2022-12-04T17:27:01.430Z,30.23
2022-12-04T17:29:29.580Z,24.33
2022-12-04T17:31:57.752Z,22.73
2022-12-04T17:34:27.334Z,20.40
2022-12-04T17:36:56.407Z,17.07
2022-12-04T17:39:24.833Z,21.30
2022-12-04T17:41:52.923Z,22.97
2022-12-04T17:44:21.153Z,24.33
2022-12-04T17:46:49.384Z,19.53
2022-12-04T17:49:17.616Z,28.90
2022-12-04T17:51:47.258Z,25.30
2022-12-04T17:54:15.430Z,25.43
2022-12-04T17:56:48.218Z,20.70
2022-12-04T17:59:18.696Z,19.53
2022-12-04T18:01:46.844Z,19.70
2022-12-04T18:04:14.910Z,22.37
2022-12-04T18:06:44.954Z,21.10
2022-12-04T18:09:17.184Z,20.70
2022-12-04T18:11:47.087Z,26.07
2022-12-04T18:14:17.741Z,26.97
2022-12-04T18:16:48.063Z,22.93
2022-12-04T18:19:16.354Z,21.40
2022-12-04T18:21:44.359Z,25.20
2022-12-04T18:24:12.570Z,19.50
2022-12-04T18:26:44.244Z,31.57
2022-12-04T18:29:14.513Z,25.47
2022-12-04T18:31:43.388Z,32.17
2022-12-04T18:34:12.106Z,20.17
2022-12-04T18:36:42.168Z,28.40
2022-12-04T18:39:13.582Z,29.37
2022-12-04T18:41:43.949Z,20.23
2022-12-04T18:44:12.406Z,19.27
2022-12-04T18:46:40.790Z,27.40
2022-12-04T18:49:09.741Z,30.53
2022-12-04T18:51:39.861Z,22.27
2022-12-04T18:54:11.377Z,21.90
2022-12-04T18:56:40.151Z,18.03
2022-12-04T18:59:13.038Z,21.07
2022-12-04T19:01:41.864Z,20.93
2022-12-04T19:04:12.681Z,16.97
2022-12-04T19:06:42.605Z,20.80
2022-12-04T19:09:13.154Z,20.53
2022-12-04T19:11:43.069Z,19.67
2022-12-04T19:14:22.458Z,17.10
2022-12-04T19:16:51.942Z,17.93
2022-12-04T19:19:20.258Z,21.03
2022-12-04T19:21:48.328Z,18.63
2022-12-04T19:24:16.470Z,52.50
2022-12-04T19:26:47.726Z,48.00
2022-12-04T19:29:17.299Z,29.67
2022-12-04T19:31:45.446Z,52.73
2022-12-04T19:34:13.745Z,22.77
2022-12-04T19:36:42.754Z,27.37
2022-12-04T19:39:11.440Z,19.47
2022-12-04T19:41:41.521Z,23.87
2022-12-04T19:44:39.926Z,26.37
2022-12-04T19:47:01.841Z,23.57
2022-12-04T19:49:30.102Z,21.17
2022-12-04T19:51:58.299Z,23.50
2022-12-04T19:54:26.454Z,63.30
2022-12-04T19:56:54.598Z,26.17
2022-12-04T19:59:22.835Z,25.57
2022-12-04T20:01:51.319Z,24.77
2022-12-04T20:04:21.559Z,18.23
2022-12-04T20:06:49.615Z,18.37
2022-12-04T20:09:21.233Z,19.43
2022-12-04T20:11:49.648Z,19.70
2022-12-04T20:14:18.932Z,21.03
2022-12-04T20:16:47.693Z,19.87
2022-12-04T20:19:18.010Z,20.83
2022-12-04T20:21:48.194Z,22.70
2022-12-04T20:24:18.419Z,27.03
2022-12-04T20:26:47.210Z,18.10
2022-12-04T20:29:19.597Z,20.37
2022-12-04T20:31:48.053Z,16.23
2022-12-04T20:34:18.565Z,17.97
2022-12-04T20:36:49.939Z,18.87
2022-12-04T20:39:19.645Z,15.33
2022-12-04T20:41:48.131Z,19.30
2022-12-04T20:44:18.731Z,20.27
2022-12-04T20:46:47.359Z,15.50
2022-12-04T20:49:21.778Z,18.47
2022-12-04T20:51:53.010Z,17.93
2022-12-04T20:54:23.275Z,18.73
2022-12-04T20:56:53.362Z,16.17
2022-12-04T20:59:23.422Z,14.93
2022-12-04T21:01:52.830Z,17.43
2022-12-04T21:04:21.555Z,15.77
2022-12-04T21:06:52.353Z,19.67
2022-12-04T21:09:24.104Z,14.87
2022-12-04T21:11:54.334Z,16.47
2022-12-04T21:14:44.513Z,18.47
2022-12-04T21:17:16.895Z,22.60
2022-12-04T21:19:45.529Z,20.53
2022-12-04T21:22:15.343Z,25.03
2022-12-04T21:24:43.836Z,20.67
2022-12-04T21:27:17.149Z,20.50
2022-12-04T21:29:47.212Z,25.33
2022-12-04T21:32:15.402Z,31.47
2022-12-04T21:34:43.730Z,25.53
2022-12-04T21:37:11.873Z,19.33
2022-12-04T21:39:42.053Z,22.00
2022-12-04T21:42:27.859Z,21.90
2022-12-04T21:44:55.908Z,20.53
2022-12-04T21:47:24.368Z,20.90
2022-12-04T21:49:52.768Z,19.80
2022-12-04T21:52:20.942Z,22.83
2022-12-04T21:54:52.099Z,18.57
2022-12-04T21:57:21.541Z,21.97
2022-12-04T21:59:51.544Z,29.03
2022-12-04T22:02:19.935Z,23.00
2022-12-04T22:04:48.317Z,22.53
2022-12-04T22:07:16.509Z,21.47
2022-12-04T22:09:44.782Z,22.33
2022-12-04T22:12:41.256Z,25.20
2022-12-04T22:15:02.244Z,22.97
2022-12-04T22:17:31.010Z,22.60
2022-12-04T22:19:59.427Z,25.60
2022-12-04T22:22:27.777Z,26.40
2022-12-04T22:24:56.141Z,26.00
2022-12-04T22:27:26.141Z,23.87
2022-12-04T22:29:54.460Z,24.43
2022-12-04T22:32:23.132Z,28.17
2022-12-04T22:34:51.564Z,25.67
2022-12-04T22:37:19.730Z,24.03
2022-12-04T22:39:47.821Z,23.73
2022-12-04T22:42:16.066Z,22.30
2022-12-04T22:44:45.660Z,23.33
2022-12-04T22:47:13.769Z,27.33
2022-12-04T22:49:42.741Z,20.83
2022-12-04T22:52:10.842Z,22.20
2022-12-04T22:54:39.017Z,19.93
2022-12-04T22:57:07.563Z,22.37
2022-12-04T22:59:35.585Z,18.43
2022-12-04T23:02:05.134Z,18.07
2022-12-04T23:04:33.355Z,18.97
2022-12-04T23:07:01.460Z,19.47
2022-12-04T23:09:29.662Z,18.20
2022-12-04T23:11:57.882Z,18.10
2022-12-04T23:14:27.229Z,20.37
2022-12-04T23:16:56.198Z,18.77
2022-12-04T23:19:25.699Z,18.40
2022-12-04T23:21:57.158Z,18.67
2022-12-04T23:24:25.976Z,16.20
2022-12-04T23:26:54.210Z,18.93
2022-12-04T23:29:52.866Z,18.73
2022-12-04T23:32:10.460Z,16.80
2022-12-04T23:34:40.094Z,18.60
2022-12-04T23:37:08.240Z,20.77
2022-12-04T23:39:36.373Z,17.63
2022-12-04T23:42:04.743Z,20.93
2022-12-04T23:44:32.775Z,18.70
2022-12-04T23:47:00.990Z,17.10
2022-12-04T23:49:29.528Z,19.30
2022-12-04T23:51:59.053Z,19.07
2022-12-04T23:54:27.395Z,21.10
2022-12-04T23:56:55.789Z,20.07
2022-12-04T23:59:23.889Z,24.10
